Etusivu
METAR-TAF:

METAR-TAF

Lentoasemat :

Burgos, Espanja

Leveyspiiri: 42-22N, Pituuspiiri: 003-38W, korkeus merenpinnasta: 894 m

Tämänhetkinen sää

Tämä raportti tehtiin 25 minuuttia sitten, kello 09.00 UTC
Tuuli 8 kn koillisesta
Lämpötila 6°C
Kosteus 100%
Ilmanpaine 1005 hPa
Näkyvyys: 3500 m
Hajonneita pilviä 200 ft:n korkeudessa
utua

METAR: LEBG 190900Z 04008KT 3500 BR BKN002 06/06 Q1005

Aika: 10:25 (09:25 UTC)

Sääennuste

Tämä raportti tehtiin 1 tunti ja 25 minuuttia sitten, kello 08.00 UTC
Ennuste voimassa 19. päivästä klo 09 UTC - 19. päivään klo 18 UTC
Tuuli 10 kn koillisesta
Näkyvyys: 8000 m
Hajanaisia pilviä 400 ft:n korkeudessa
Todennäköisyys 30% :
Ajoittain
19. päivästä klo 09 UTC - 19. päivään klo 10 UTC
Näkyvyys: 1500 m
200 ft:n korkeudessa
sumuhattaroita
Tulossa
19. päivästä klo 12 UTC - 19. päivään klo 14 UTC
Tuuli 4 kn eri suunnista

TAF: LEBG 190800Z 1909/1918 04010KT 8000 SCT004 PROB30 TEMPO 1909/1910 1500 BCFG VV002 BECMG 1912/1914 VRB04KT

Säähavainnot ja -ennusteet yli 4000 lentoasemalta (METAR- ja TAF-raportit).

Käytössä olevat sääasemat on merkitty karttaan keltaisilla ja punaisilla pisteillä.

Aseta hiiri pisteen päälle nähdäksesi sääaseman nimen.

Klikkaa sitten nähdäksesi säähavainnot ja -ennusteet.

Kartan vaihtaminen: klikkaa mustalla rastilla varustettuja vihreitä pisteitä, niin voit zoomata sisään; viivalla varustettua vihreää pistettä, niin voit zoomata ulos tai vihreitä nuolia, niin pääset viereisille kartoille.


METAR-TAF: